createdAt,value
2017-11-23T00:01:17.998Z,3.00
2017-11-23T00:03:46.494Z,3.00
2017-11-23T00:06:14.856Z,3.00
2017-11-23T00:08:43.991Z,3.00
2017-11-23T00:11:13.247Z,2.90
2017-11-23T00:13:41.620Z,2.90
2017-11-23T00:16:09.991Z,2.80
2017-11-23T00:18:38.400Z,2.90
2017-11-23T00:21:06.777Z,2.90
2017-11-23T00:23:35.157Z,2.80
2017-11-23T00:26:03.918Z,2.80
2017-11-23T00:28:33.043Z,2.80
2017-11-23T00:31:01.421Z,2.80
2017-11-23T00:33:30.273Z,2.80
2017-11-23T00:35:58.645Z,2.80
2017-11-23T00:38:27.016Z,2.90
2017-11-23T00:40:55.511Z,2.90
2017-11-23T00:43:23.889Z,2.90
2017-11-23T00:45:52.275Z,2.90
2017-11-23T00:48:20.674Z,2.90
2017-11-23T00:50:49.047Z,2.80
2017-11-23T00:53:17.435Z,2.90
2017-11-23T00:55:45.988Z,2.90
2017-11-23T00:58:14.347Z,2.80
2017-11-23T01:00:42.752Z,2.90
2017-11-23T01:03:11.544Z,2.80
2017-11-23T01:05:39.908Z,2.60
2017-11-23T01:08:08.288Z,2.60
2017-11-23T01:10:36.968Z,2.70
2017-11-23T01:13:05.328Z,2.50
2017-11-23T01:15:33.708Z,2.60
2017-11-23T01:18:02.309Z,2.60
2017-11-23T01:20:30.686Z,2.50
2017-11-23T01:22:59.066Z,2.50
2017-11-23T01:25:27.858Z,2.40
2017-11-23T01:27:56.226Z,2.30
2017-11-23T01:30:24.593Z,2.30
2017-11-23T01:32:52.990Z,2.10
2017-11-23T01:35:21.363Z,2.00
2017-11-23T01:37:49.736Z,2.00
2017-11-23T01:40:18.242Z,2.00
2017-11-23T01:42:46.638Z,1.90
2017-11-23T01:45:15.027Z,1.80
2017-11-23T01:47:43.434Z,1.90
2017-11-23T01:50:12.563Z,2.00
2017-11-23T01:52:40.925Z,1.90
2017-11-23T01:55:09.825Z,1.90
2017-11-23T01:57:38.199Z,1.80
2017-11-23T02:00:06.582Z,1.70
2017-11-23T02:02:35.171Z,1.70
2017-11-23T02:05:03.543Z,1.70
2017-11-23T02:07:32.242Z,1.80
2017-11-23T02:10:00.764Z,1.70
2017-11-23T02:12:29.140Z,1.70
2017-11-23T02:14:57.514Z,1.80
2017-11-23T02:17:26.270Z,1.80
2017-11-23T02:19:55.440Z,1.70
2017-11-23T02:22:23.832Z,1.70
2017-11-23T02:24:52.475Z,1.60
2017-11-23T02:27:21.656Z,1.70
2017-11-23T02:29:50.056Z,1.70
2017-11-23T02:32:19.335Z,1.70
2017-11-23T02:34:47.783Z,1.60
2017-11-23T02:37:16.180Z,1.70
2017-11-23T02:39:44.939Z,1.70
2017-11-23T02:42:13.314Z,1.70
2017-11-23T02:44:41.693Z,1.60
2017-11-23T02:47:10.376Z,1.60
2017-11-23T02:49:38.755Z,1.70
2017-11-23T02:52:07.168Z,1.70
2017-11-23T02:54:35.629Z,1.70
2017-11-23T02:57:04.780Z,1.60
2017-11-23T02:59:33.156Z,1.60
2017-11-23T03:02:02.603Z,1.60
2017-11-23T03:04:31.002Z,1.60
2017-11-23T03:06:59.375Z,1.50
2017-11-23T03:09:28.153Z,1.60
2017-11-23T03:11:56.551Z,1.60
2017-11-23T03:14:24.918Z,1.50
2017-11-23T03:16:53.722Z,1.50
2017-11-23T03:19:22.181Z,1.60
2017-11-23T03:21:50.562Z,1.50
2017-11-23T03:24:18.997Z,1.50
2017-11-23T03:26:48.136Z,1.40
2017-11-23T03:29:16.498Z,1.40
2017-11-23T03:31:44.992Z,1.40
2017-11-23T03:34:13.365Z,1.40
2017-11-23T03:36:41.759Z,1.40
2017-11-23T03:39:10.258Z,1.50
2017-11-23T03:41:38.638Z,1.40
2017-11-23T03:44:07.014Z,1.50
2017-11-23T03:46:35.777Z,1.50
2017-11-23T03:49:04.154Z,1.60
2017-11-23T03:51:32.591Z,1.50
2017-11-23T03:54:01.937Z,1.50
2017-11-23T03:56:30.314Z,1.50
2017-11-23T03:58:58.696Z,1.50
2017-11-23T04:01:27.378Z,1.40
2017-11-23T04:03:55.751Z,1.40
2017-11-23T04:06:24.120Z,1.30
2017-11-23T04:08:52.620Z,1.40
2017-11-23T04:11:20.998Z,1.40
2017-11-23T04:13:49.371Z,1.40
2017-11-23T04:16:17.935Z,1.30
2017-11-23T04:18:46.309Z,1.10
2017-11-23T04:21:14.688Z,0.90
2017-11-23T04:23:43.295Z,0.80
2017-11-23T04:26:11.681Z,0.90
2017-11-23T04:28:40.080Z,0.90
2017-11-23T04:31:08.731Z,0.90
2017-11-23T04:33:37.105Z,0.90
2017-11-23T04:36:05.476Z,0.90
2017-11-23T04:38:33.995Z,1.00
2017-11-23T04:41:02.416Z,1.00
2017-11-23T04:43:30.792Z,0.90
2017-11-23T04:45:59.202Z,0.80
2017-11-23T04:48:27.584Z,0.80
2017-11-23T04:50:55.964Z,0.80
2017-11-23T04:53:24.391Z,0.90
2017-11-23T04:55:52.827Z,0.90
2017-11-23T04:58:21.197Z,0.90
2017-11-23T05:00:49.831Z,0.90
2017-11-23T05:03:18.983Z,0.80
2017-11-23T05:05:47.358Z,0.80
2017-11-23T05:08:15.765Z,0.80
2017-11-23T05:10:44.152Z,0.60
2017-11-23T05:13:12.532Z,0.40
2017-11-23T05:15:41.083Z,0.40
2017-11-23T05:18:09.462Z,0.10
2017-11-23T05:20:37.843Z,0.00
2017-11-23T05:23:06.336Z,0.20
2017-11-23T05:25:34.712Z,0.30
2017-11-23T05:28:03.075Z,0.20
2017-11-23T05:30:31.758Z,0.20
2017-11-23T05:33:00.135Z,0.30
2017-11-23T05:35:28.507Z,0.30
2017-11-23T05:37:57.233Z,0.40
2017-11-23T05:40:25.625Z,0.50
2017-11-23T05:42:53.992Z,0.50
2017-11-23T05:45:22.691Z,0.50
2017-11-23T05:47:51.069Z,0.60
2017-11-23T05:50:19.442Z,0.50
2017-11-23T05:52:48.077Z,0.40
2017-11-23T05:55:16.463Z,0.30
2017-11-23T05:57:44.838Z,0.20
2017-11-23T06:00:13.355Z,0.30
2017-11-23T06:02:42.524Z,0.20
2017-11-23T06:05:10.912Z,0.20
2017-11-23T06:07:39.407Z,0.20
2017-11-23T06:10:07.780Z,0.30
2017-11-23T06:12:36.151Z,0.40
2017-11-23T06:15:04.700Z,0.40
2017-11-23T06:17:33.094Z,0.40
2017-11-23T06:20:01.465Z,0.50
2017-11-23T06:22:29.984Z,0.50
2017-11-23T06:24:58.361Z,0.40
2017-11-23T06:27:26.762Z,0.40
2017-11-23T06:29:55.971Z,0.50
2017-11-23T06:32:25.119Z,0.50
2017-11-23T06:34:53.499Z,0.50
2017-11-23T06:37:22.135Z,0.70
2017-11-23T06:39:50.505Z,0.80
2017-11-23T06:42:19.644Z,0.80
2017-11-23T06:44:48.229Z,0.80
2017-11-23T06:47:16.591Z,0.80
2017-11-23T06:49:44.962Z,0.70
2017-11-23T06:52:13.772Z,0.70
2017-11-23T06:54:42.148Z,0.90
2017-11-23T06:57:10.510Z,1.30
2017-11-23T06:59:38.999Z,1.80
2017-11-23T07:02:07.378Z,2.50
2017-11-23T07:04:35.753Z,2.70
2017-11-23T07:07:04.151Z,3.10
2017-11-23T07:09:32.552Z,3.50
2017-11-23T07:12:00.936Z,3.80
2017-11-23T07:14:29.496Z,4.20
2017-11-23T07:16:57.877Z,4.60
2017-11-23T07:19:26.247Z,5.10
2017-11-23T07:21:54.821Z,5.70
2017-11-23T07:24:23.187Z,6.00
2017-11-23T07:26:51.552Z,6.40
2017-11-23T07:29:19.953Z,6.80
2017-11-23T07:31:48.352Z,6.90
2017-11-23T07:34:16.731Z,7.40
2017-11-23T07:36:45.599Z,8.30
2017-11-23T07:39:13.971Z,8.80
2017-11-23T07:41:42.372Z,9.30
2017-11-23T07:44:11.047Z,9.40
2017-11-23T07:46:39.405Z,9.40
2017-11-23T07:49:07.789Z,10.60
2017-11-23T07:51:36.295Z,11.20
2017-11-23T07:54:04.668Z,11.60
2017-11-23T07:56:33.043Z,10.90
2017-11-23T07:59:01.625Z,10.20
2017-11-23T08:01:29.987Z,10.20
2017-11-23T08:03:58.367Z,10.80
2017-11-23T08:06:26.786Z,10.80
2017-11-23T08:08:55.166Z,10.60
2017-11-23T08:11:23.535Z,11.00
2017-11-23T08:13:52.139Z,11.40
2017-11-23T08:16:20.525Z,11.10
2017-11-23T08:18:49.679Z,11.20
2017-11-23T08:21:18.112Z,11.20
2017-11-23T08:23:47.254Z,12.20
2017-11-23T08:26:15.649Z,12.20
2017-11-23T08:28:44.068Z,12.20
2017-11-23T08:31:13.205Z,12.70
2017-11-23T08:33:41.595Z,12.60
2017-11-23T08:36:10.263Z,12.40
2017-11-23T08:38:38.634Z,13.90
2017-11-23T08:41:07.016Z,14.30
2017-11-23T08:43:35.514Z,14.60
2017-11-23T08:46:03.899Z,15.40
2017-11-23T08:48:32.279Z,15.70
2017-11-23T08:51:01.052Z,15.60
2017-11-23T08:53:31.258Z,16.20
2017-11-23T08:55:59.652Z,17.30
2017-11-23T08:58:28.084Z,18.00
2017-11-23T09:00:57.231Z,18.10
2017-11-23T09:03:25.624Z,18.00
2017-11-23T09:05:54.146Z,17.70
2017-11-23T09:08:22.529Z,17.80
2017-11-23T09:10:51.681Z,18.40
2017-11-23T09:13:20.350Z,18.30
2017-11-23T09:15:48.899Z,18.70
2017-11-23T09:18:17.318Z,18.70
2017-11-23T09:20:46.512Z,19.10
2017-11-23T09:23:14.893Z,20.10
2017-11-23T09:25:43.267Z,20.70
2017-11-23T09:28:11.768Z,20.90
2017-11-23T09:30:40.152Z,21.40
2017-11-23T09:33:08.540Z,21.40
2017-11-23T09:35:37.100Z,21.80
2017-11-23T09:38:05.483Z,22.30
2017-11-23T09:40:33.856Z,22.80
2017-11-23T09:43:02.474Z,22.40
2017-11-23T09:45:31.622Z,22.60
2017-11-23T09:48:00.008Z,22.50
2017-11-23T09:50:28.453Z,22.50
2017-11-23T09:52:56.867Z,22.70
2017-11-23T09:55:25.241Z,22.60
2017-11-23T09:57:53.675Z,21.70
2017-11-23T10:00:22.818Z,21.70
2017-11-23T10:02:51.204Z,21.70
2017-11-23T10:05:19.724Z,22.30
2017-11-23T10:07:48.871Z,22.00
2017-11-23T10:10:17.259Z,22.00
2017-11-23T10:12:45.731Z,22.00
2017-11-23T10:15:14.106Z,21.40
2017-11-23T10:17:42.496Z,21.50
2017-11-23T10:20:11.005Z,21.50
2017-11-23T10:22:39.393Z,22.50
2017-11-23T10:25:07.772Z,22.70
2017-11-23T10:27:36.406Z,22.40
2017-11-23T10:30:04.806Z,21.60
2017-11-23T10:32:33.197Z,22.10
2017-11-23T10:35:01.884Z,22.10
2017-11-23T10:37:35.736Z,21.10
2017-11-23T10:40:04.455Z,19.70
2017-11-23T10:42:32.847Z,19.20
2017-11-23T10:45:01.220Z,19.20
2017-11-23T10:47:29.631Z,19.20
2017-11-23T10:49:58.772Z,18.00
2017-11-23T10:52:27.158Z,17.90
2017-11-23T10:54:55.844Z,18.10
2017-11-23T10:57:24.215Z,18.30
2017-11-23T10:59:52.586Z,19.00
2017-11-23T11:02:21.144Z,18.50
2017-11-23T11:04:50.280Z,18.00
2017-11-23T11:07:18.672Z,17.90
2017-11-23T11:09:47.190Z,18.20
2017-11-23T11:12:16.344Z,18.10
2017-11-23T11:14:44.718Z,18.10
2017-11-23T11:17:13.161Z,17.80
2017-11-23T11:19:41.549Z,17.60
2017-11-23T11:22:09.919Z,17.80
2017-11-23T11:24:38.422Z,17.50
2017-11-23T11:27:06.800Z,17.10
2017-11-23T11:29:35.181Z,17.20
2017-11-23T11:32:03.868Z,17.10
2017-11-23T11:34:32.245Z,17.10
2017-11-23T11:37:00.628Z,17.00
2017-11-23T11:39:29.123Z,17.10
2017-11-23T11:41:57.501Z,16.90
2017-11-23T11:44:25.908Z,16.90
2017-11-23T11:46:55.115Z,17.20
2017-11-23T11:49:24.258Z,17.80
2017-11-23T11:51:52.647Z,17.80
2017-11-23T11:54:22.147Z,18.80
2017-11-23T11:56:50.526Z,18.80
2017-11-23T11:59:18.900Z,19.20
2017-11-23T12:01:47.587Z,19.70
2017-11-23T12:04:15.994Z,20.10
2017-11-23T12:06:44.391Z,20.40
2017-11-23T12:09:12.821Z,20.90
2017-11-23T12:11:41.971Z,21.30
2017-11-23T12:14:27.292Z,21.50
2017-11-23T12:16:57.433Z,21.40
2017-11-23T12:19:43.917Z,21.40
2017-11-23T12:22:30.039Z,21.20
2017-11-23T12:25:03.240Z,21.10
2017-11-23T12:27:49.611Z,21.40
2017-11-23T12:30:18.116Z,21.50
2017-11-23T12:32:46.487Z,21.80
2017-11-23T12:35:14.865Z,22.40
2017-11-23T12:37:43.464Z,22.60
2017-11-23T12:40:11.860Z,22.30
2017-11-23T12:42:41.065Z,22.10
2017-11-23T12:45:10.505Z,22.00
2017-11-23T12:47:38.888Z,22.00
2017-11-23T12:50:07.291Z,21.40
2017-11-23T12:52:35.940Z,20.90
2017-11-23T12:55:04.315Z,20.70
2017-11-23T12:57:32.688Z,20.50
2017-11-23T13:00:01.216Z,20.20
2017-11-23T13:02:29.591Z,20.20
2017-11-23T13:04:57.965Z,19.90
2017-11-23T13:07:26.651Z,19.70
2017-11-23T13:09:55.027Z,19.80
2017-11-23T13:12:23.408Z,19.70
2017-11-23T13:14:52.080Z,19.40
2017-11-23T13:17:21.229Z,18.70
2017-11-23T13:19:50.390Z,18.70
2017-11-23T13:22:18.808Z,18.60
2017-11-23T13:24:47.293Z,18.60
2017-11-23T13:27:15.716Z,18.40
2017-11-23T13:29:44.396Z,18.20
2017-11-23T13:32:12.787Z,18.00
2017-11-23T13:34:41.171Z,17.60
2017-11-23T13:37:09.824Z,17.20
2017-11-23T13:39:38.236Z,16.70
2017-11-23T13:42:06.619Z,16.30
2017-11-23T13:44:35.271Z,15.90
2017-11-23T13:47:03.653Z,15.70
2017-11-23T13:49:32.029Z,15.50
2017-11-23T13:52:00.547Z,15.30
2017-11-23T13:54:28.935Z,15.30
2017-11-23T13:56:57.302Z,15.20
2017-11-23T13:59:25.863Z,15.40
2017-11-23T14:01:54.254Z,15.10
2017-11-23T14:04:22.653Z,14.80
2017-11-23T14:06:51.403Z,14.70
2017-11-23T14:09:19.791Z,14.60
2017-11-23T14:11:48.171Z,14.50
2017-11-23T14:14:17.036Z,14.40
2017-11-23T14:16:45.425Z,14.30
2017-11-23T14:19:13.795Z,14.20
2017-11-23T14:21:42.340Z,14.20
2017-11-23T14:24:11.546Z,14.20
2017-11-23T14:26:39.965Z,14.20
2017-11-23T14:29:08.381Z,14.10
2017-11-23T14:31:37.541Z,14.00
2017-11-23T14:34:05.973Z,14.10
2017-11-23T14:36:35.229Z,14.00
2017-11-23T14:39:04.474Z,13.90
2017-11-23T14:41:33.783Z,13.80
2017-11-23T14:44:02.503Z,13.80
2017-11-23T14:46:30.880Z,13.80
2017-11-23T14:48:59.269Z,13.70
2017-11-23T14:51:27.915Z,13.60
2017-11-23T14:53:56.286Z,13.50
2017-11-23T14:56:24.666Z,13.40
2017-11-23T14:58:53.376Z,13.40
2017-11-23T15:01:21.756Z,13.30
2017-11-23T15:03:50.424Z,13.20
2017-11-23T15:06:19.252Z,13.10
2017-11-23T15:08:47.682Z,12.90
2017-11-23T15:11:16.065Z,12.80
2017-11-23T15:13:44.947Z,12.80
2017-11-23T15:16:14.104Z,12.60
2017-11-23T15:18:42.529Z,12.60
2017-11-23T15:21:11.163Z,12.50
2017-11-23T15:23:39.547Z,12.40
2017-11-23T15:26:07.925Z,12.20
2017-11-23T15:28:36.369Z,12.20
2017-11-23T15:31:04.966Z,12.10
2017-11-23T15:33:33.352Z,12.00
2017-11-23T15:36:01.863Z,12.00
2017-11-23T15:38:30.253Z,12.20
2017-11-23T15:40:59.443Z,12.30
2017-11-23T15:43:27.965Z,12.20
2017-11-23T15:45:56.330Z,12.30
2017-11-23T15:48:24.719Z,12.30
2017-11-23T15:50:53.233Z,12.30
2017-11-23T15:53:21.620Z,12.20
2017-11-23T15:55:50.003Z,12.20
2017-11-23T15:58:18.659Z,12.20
2017-11-23T16:00:47.028Z,12.20
2017-11-23T16:03:15.404Z,12.20
2017-11-23T16:05:43.919Z,12.30
2017-11-23T16:08:12.304Z,12.30
2017-11-23T16:10:40.675Z,12.30
2017-11-23T16:13:09.351Z,12.30
2017-11-23T16:15:37.735Z,12.30
2017-11-23T16:18:06.129Z,12.30
2017-11-23T16:20:34.564Z,12.40
2017-11-23T16:23:02.946Z,12.40
2017-11-23T16:25:31.325Z,12.40
2017-11-23T16:27:59.892Z,12.30
2017-11-23T16:30:28.276Z,12.30
2017-11-23T16:32:56.782Z,12.30
2017-11-23T16:35:25.461Z,12.20
2017-11-23T16:37:55.661Z,12.20
2017-11-23T16:43:30.142Z,12.10
2017-11-23T16:46:04.852Z,12.10
2017-11-23T16:48:38.935Z,12.10
2017-11-23T16:51:13.107Z,11.90
2017-11-23T16:53:47.793Z,11.80
2017-11-23T16:59:35.073Z,11.80
2017-11-23T17:02:08.981Z,11.90
2017-11-23T17:04:38.170Z,11.80
2017-11-23T17:10:16.382Z,11.70
2017-11-23T17:15:48.204Z,11.60
2017-11-23T17:18:18.423Z,11.60
2017-11-23T17:20:46.801Z,11.60
2017-11-23T17:23:15.193Z,11.50
2017-11-23T17:25:44.658Z,11.40
2017-11-23T17:28:13.050Z,11.40
2017-11-23T17:30:41.462Z,11.40
2017-11-23T17:33:10.088Z,11.40
2017-11-23T17:35:38.575Z,11.20
2017-11-23T17:38:06.966Z,11.10
2017-11-23T17:40:35.837Z,11.00
2017-11-23T17:43:04.244Z,10.90
2017-11-23T17:45:32.629Z,10.80
2017-11-23T17:48:01.276Z,10.80
2017-11-23T17:50:29.658Z,10.90
2017-11-23T17:52:58.031Z,10.90
2017-11-23T17:55:26.756Z,10.80
2017-11-23T17:57:55.140Z,10.80
2017-11-23T18:00:23.650Z,10.70
2017-11-23T18:02:52.302Z,10.70
2017-11-23T18:05:20.721Z,10.60
2017-11-23T18:07:49.125Z,10.60
2017-11-23T18:10:17.777Z,10.50
2017-11-23T18:12:46.563Z,10.50
2017-11-23T18:15:15.364Z,10.50
2017-11-23T18:17:45.519Z,10.50
2017-11-23T18:20:14.329Z,10.40
2017-11-23T18:22:43.133Z,10.50
2017-11-23T18:25:12.136Z,10.50
2017-11-23T18:27:40.929Z,10.40
2017-11-23T18:30:09.735Z,10.30
2017-11-23T18:32:38.532Z,10.20
2017-11-23T18:35:07.033Z,10.20
2017-11-23T18:37:35.764Z,10.20
2017-11-23T18:40:04.646Z,10.20
2017-11-23T18:42:33.310Z,10.10
2017-11-23T18:45:02.687Z,10.00
2017-11-23T18:47:31.980Z,10.00
2017-11-23T18:50:00.636Z,10.00
2017-11-23T18:52:29.552Z,9.90
2017-11-23T18:54:58.731Z,9.90
2017-11-23T18:57:27.292Z,9.80
2017-11-23T18:59:55.902Z,9.80
2017-11-23T19:02:24.566Z,9.90
2017-11-23T19:04:53.331Z,9.90
2017-11-23T19:07:22.905Z,9.90
2017-11-23T19:09:51.531Z,9.80
2017-11-23T19:12:21.103Z,9.70
2017-11-23T19:14:49.795Z,9.60
2017-11-23T19:17:18.612Z,9.60
2017-11-23T19:19:47.430Z,9.60
2017-11-23T19:22:16.921Z,9.60
2017-11-23T19:24:45.785Z,9.50
2017-11-23T19:27:14.422Z,9.60
2017-11-23T19:29:43.531Z,9.60
2017-11-23T19:32:12.203Z,9.50
2017-11-23T19:34:40.790Z,9.60
2017-11-23T19:37:09.356Z,9.60
2017-11-23T19:39:38.167Z,9.60
2017-11-23T19:42:06.722Z,9.60
2017-11-23T19:44:36.106Z,9.60
2017-11-23T19:47:06.433Z,9.60
2017-11-23T19:49:35.338Z,9.70
2017-11-23T19:52:04.223Z,9.70
2017-11-23T19:54:33.226Z,9.70
2017-11-23T19:57:01.999Z,9.70
2017-11-23T19:59:31.660Z,9.80
2017-11-23T20:02:01.205Z,9.70
2017-11-23T20:04:29.947Z,9.70
2017-11-23T20:06:59.586Z,9.80
2017-11-23T20:09:28.180Z,9.80
2017-11-23T20:11:56.893Z,9.80
2017-11-23T20:14:25.681Z,9.80
2017-11-23T20:16:54.537Z,9.70
2017-11-23T20:19:23.206Z,9.70
2017-11-23T20:21:51.736Z,9.70
2017-11-23T20:24:20.873Z,9.60
2017-11-23T20:26:50.278Z,9.60
2017-11-23T20:29:19.589Z,9.70
2017-11-23T20:31:48.668Z,9.70
2017-11-23T20:34:17.867Z,9.50
2017-11-23T20:36:46.533Z,9.50
2017-11-23T20:39:15.443Z,9.50
2017-11-23T20:41:44.738Z,9.40
2017-11-23T20:44:13.212Z,9.40
2017-11-23T20:46:42.048Z,9.40
2017-11-23T20:49:10.596Z,9.30
2017-11-23T20:51:39.041Z,9.30
2017-11-23T20:54:07.839Z,9.30
2017-11-23T20:56:36.222Z,9.30
2017-11-23T20:59:04.593Z,9.30
2017-11-23T21:01:33.078Z,9.30
2017-11-23T21:04:01.569Z,9.20
2017-11-23T21:06:30.087Z,9.20
2017-11-23T21:08:59.185Z,9.20
2017-11-23T21:11:27.586Z,9.20
2017-11-23T21:13:56.715Z,9.20
2017-11-23T21:16:25.198Z,9.10
2017-11-23T21:18:53.649Z,9.10
2017-11-23T21:21:22.094Z,9.20
2017-11-23T21:23:50.730Z,9.20
2017-11-23T21:26:19.480Z,9.30
2017-11-23T21:28:48.174Z,9.30
2017-11-23T21:31:17.117Z,9.40
2017-11-23T21:33:45.695Z,9.40
2017-11-23T21:36:14.348Z,9.40
2017-11-23T21:38:43.358Z,9.40
2017-11-23T21:41:11.897Z,9.40
2017-11-23T21:43:41.468Z,9.30
2017-11-23T21:46:10.236Z,9.40
2017-11-23T21:48:38.820Z,9.30
2017-11-23T21:51:07.227Z,9.20
2017-11-23T21:53:35.665Z,9.10
2017-11-23T21:56:05.132Z,9.10
2017-11-23T21:58:33.833Z,9.10
2017-11-23T22:01:02.553Z,9.10
2017-11-23T22:03:31.329Z,9.10
2017-11-23T22:05:59.914Z,9.20
2017-11-23T22:08:28.578Z,9.20
2017-11-23T22:10:57.128Z,9.20
2017-11-23T22:13:26.364Z,9.20
2017-11-23T22:15:54.989Z,9.20
2017-11-23T22:18:23.615Z,9.20
2017-11-23T22:20:52.766Z,9.30
2017-11-23T22:23:21.270Z,9.20
2017-11-23T22:25:49.654Z,9.20
2017-11-23T22:28:18.018Z,9.30
2017-11-23T22:30:46.949Z,9.20
2017-11-23T22:33:16.104Z,9.30
2017-11-23T22:35:44.507Z,9.30
2017-11-23T22:38:13.302Z,9.30
2017-11-23T22:40:41.738Z,9.30
2017-11-23T22:43:10.100Z,9.30
2017-11-23T22:45:38.515Z,9.20
2017-11-23T22:48:06.875Z,9.20
2017-11-23T22:50:35.242Z,9.20
2017-11-23T22:53:04.030Z,9.20
2017-11-23T22:55:32.406Z,9.20
2017-11-23T22:58:00.775Z,9.10
2017-11-23T23:00:29.576Z,9.10
2017-11-23T23:02:57.951Z,9.10
2017-11-23T23:05:26.319Z,9.20
2017-11-23T23:07:54.890Z,9.20
2017-11-23T23:10:23.265Z,9.20
2017-11-23T23:12:51.637Z,9.30
2017-11-23T23:15:20.249Z,9.30
2017-11-23T23:17:48.612Z,9.20
2017-11-23T23:20:16.978Z,9.20
2017-11-23T23:22:46.423Z,9.10
2017-11-23T23:25:14.785Z,9.10
2017-11-23T23:27:43.143Z,9.10
2017-11-23T23:30:11.555Z,9.10
2017-11-23T23:32:39.910Z,9.10
2017-11-23T23:35:08.267Z,9.00
2017-11-23T23:37:37.701Z,9.00
2017-11-23T23:40:06.071Z,8.90
2017-11-23T23:42:34.447Z,9.00
2017-11-23T23:45:02.857Z,9.00
2017-11-23T23:47:31.219Z,9.00
2017-11-23T23:49:59.578Z,8.90
2017-11-23T23:52:28.402Z,8.90
2017-11-23T23:54:56.764Z,9.00
2017-11-23T23:57:25.132Z,9.00
2017-11-23T23:59:53.611Z,8.90
